sensor_id;sensor_type;location;lat;lon;timestamp;pressure;altitude;pressure_sealevel;temperature;humidity
45255;BME280;30989;52.078;21.014;2023-04-29T00:00:35;165271.19;;;5.80;74.21
45255;BME280;30989;52.078;21.014;2023-04-29T00:03:01;165259.16;;;5.75;74.61
45255;BME280;30989;52.078;21.014;2023-04-29T00:05:26;165256.50;;;5.74;75.02
45255;BME280;30989;52.078;21.014;2023-04-29T00:07:52;165256.50;;;5.74;74.82
45255;BME280;30989;52.078;21.014;2023-04-29T00:10:18;165252.47;;;5.73;74.79
45255;BME280;30989;52.078;21.014;2023-04-29T00:12:43;165239.13;;;5.68;75.24
45255;BME280;30989;52.078;21.014;2023-04-29T00:15:09;165240.47;;;5.68;75.33
45255;BME280;30989;52.078;21.014;2023-04-29T00:17:35;165241.81;;;5.69;75.74
45255;BME280;30989;52.078;21.014;2023-04-29T00:20:01;165244.47;;;5.70;75.43
45255;BME280;30989;52.078;21.014;2023-04-29T00:22:27;165211.09;;;5.57;75.56
45255;BME280;30989;52.078;21.014;2023-04-29T00:24:52;165233.78;;;5.66;75.60
45255;BME280;30989;52.078;21.014;2023-04-29T00:27:18;165233.78;;;5.66;76.25
45255;BME280;30989;52.078;21.014;2023-04-29T00:29:44;165196.41;;;5.52;75.96
45255;BME280;30989;52.078;21.014;2023-04-29T00:32:09;165225.78;;;5.63;75.85
45255;BME280;30989;52.078;21.014;2023-04-29T00:34:34;165212.44;;;5.58;76.89
45255;BME280;30989;52.078;21.014;2023-04-29T00:37:00;165207.09;;;5.56;76.03
45255;BME280;30989;52.078;21.014;2023-04-29T00:39:25;165213.75;;;5.58;76.65
45255;BME280;30989;52.078;21.014;2023-04-29T00:41:51;165212.44;;;5.58;76.55
45255;BME280;30989;52.078;21.014;2023-04-29T00:44:17;165209.75;;;5.57;76.33
45255;BME280;30989;52.078;21.014;2023-04-29T00:46:42;165203.09;;;5.54;75.99
45255;BME280;30989;52.078;21.014;2023-04-29T00:49:09;165192.41;;;5.50;77.00
45255;BME280;30989;52.078;21.014;2023-04-29T00:51:36;165193.75;;;5.50;77.09
45255;BME280;30989;52.078;21.014;2023-04-29T00:54:04;165191.06;;;5.49;76.75
45255;BME280;30989;52.078;21.014;2023-04-29T00:56:33;165188.41;;;5.48;77.72
45255;BME280;30989;52.078;21.014;2023-04-29T00:59:00;165187.06;;;5.48;77.94
45255;BME280;30989;52.078;21.014;2023-04-29T01:01:27;165185.72;;;5.47;77.89
45255;BME280;30989;52.078;21.014;2023-04-29T01:03:53;165169.72;;;5.41;78.06
45255;BME280;30989;52.078;21.014;2023-04-29T01:06:36;165171.06;;;5.42;77.97
45255;BME280;30989;52.078;21.014;2023-04-29T01:15:11;165177.72;;;5.44;78.30
45255;BME280;30989;52.078;21.014;2023-04-29T01:18:04;165185.72;;;5.47;78.91
45255;BME280;30989;52.078;21.014;2023-04-29T01:20:31;165169.72;;;5.41;78.43
45255;BME280;30989;52.078;21.014;2023-04-29T01:22:58;165183.06;;;5.46;78.45
45255;BME280;30989;52.078;21.014;2023-04-29T01:25:24;165176.38;;;5.44;79.03
45255;BME280;30989;52.078;21.014;2023-04-29T01:28:42;165179.06;;;5.45;78.65
45255;BME280;30989;52.078;21.014;2023-04-29T01:34:08;165164.38;;;5.39;79.02
45255;BME280;30989;52.078;21.014;2023-04-29T01:37:01;165183.06;;;5.46;78.99
45255;BME280;30989;52.078;21.014;2023-04-29T01:39:41;165169.72;;;5.41;79.47
45255;BME280;30989;52.078;21.014;2023-04-29T01:42:22;165172.38;;;5.42;79.39
45255;BME280;30989;52.078;21.014;2023-04-29T01:44:52;165187.06;;;5.48;79.38
45255;BME280;30989;52.078;21.014;2023-04-29T01:47:20;165177.72;;;5.44;79.42
45255;BME280;30989;52.078;21.014;2023-04-29T01:49:49;165177.72;;;5.44;79.70
45255;BME280;30989;52.078;21.014;2023-04-29T01:52:15;165179.06;;;5.45;79.41
45255;BME280;30989;52.078;21.014;2023-04-29T01:54:49;165161.72;;;5.38;79.49
45255;BME280;30989;52.078;21.014;2023-04-29T01:57:16;165173.72;;;5.43;79.54
45255;BME280;30989;52.078;21.014;2023-04-29T01:59:51;165159.03;;;5.37;79.85
45255;BME280;30989;52.078;21.014;2023-04-29T02:02:45;165177.72;;;5.44;79.20
45255;BME280;30989;52.078;21.014;2023-04-29T02:05:26;165164.38;;;5.39;80.00
45255;BME280;30989;52.078;21.014;2023-04-29T02:07:56;165167.03;;;5.40;79.87
45255;BME280;30989;52.078;21.014;2023-04-29T02:10:22;165172.38;;;5.42;79.65
45255;BME280;30989;52.078;21.014;2023-04-29T02:12:52;165165.72;;;5.40;79.82
45255;BME280;30989;52.078;21.014;2023-04-29T02:15:19;165151.03;;;5.34;79.79
45255;BME280;30989;52.078;21.014;2023-04-29T02:17:45;165153.69;;;5.35;80.50
45255;BME280;30989;52.078;21.014;2023-04-29T02:20:11;165165.72;;;5.40;80.29
45255;BME280;30989;52.078;21.014;2023-04-29T02:22:37;165165.72;;;5.40;80.09
45255;BME280;30989;52.078;21.014;2023-04-29T02:25:02;165152.38;;;5.35;79.78
45255;BME280;30989;52.078;21.014;2023-04-29T02:27:28;165169.72;;;5.41;80.02
45255;BME280;30989;52.078;21.014;2023-04-29T02:29:53;165167.03;;;5.40;80.38
45255;BME280;30989;52.078;21.014;2023-04-29T02:32:19;165164.38;;;5.39;79.93
45255;BME280;30989;52.078;21.014;2023-04-29T02:34:45;165164.38;;;5.39;80.09
45255;BME280;30989;52.078;21.014;2023-04-29T02:37:11;165167.03;;;5.40;79.90
45255;BME280;30989;52.078;21.014;2023-04-29T02:39:38;165160.38;;;5.38;80.48
45255;BME280;30989;52.078;21.014;2023-04-29T02:42:03;165159.03;;;5.37;79.80
45255;BME280;30989;52.078;21.014;2023-04-29T02:44:29;165155.03;;;5.36;80.26
45255;BME280;30989;52.078;21.014;2023-04-29T02:46:55;165164.38;;;5.39;79.66
45255;BME280;30989;52.078;21.014;2023-04-29T02:49:22;165157.69;;;5.37;80.95
45255;BME280;30989;52.078;21.014;2023-04-29T02:51:47;165156.38;;;5.36;79.93
45255;BME280;30989;52.078;21.014;2023-04-29T02:54:15;165148.34;;;5.33;80.02
45255;BME280;30989;52.078;21.014;2023-04-29T02:56:41;165152.38;;;5.35;79.82
45255;BME280;30989;52.078;21.014;2023-04-29T02:59:07;165140.34;;;5.30;80.44
45255;BME280;30989;52.078;21.014;2023-04-29T03:01:32;165137.69;;;5.29;80.50
45255;BME280;30989;52.078;21.014;2023-04-29T03:03:58;165153.69;;;5.35;80.59
45255;BME280;30989;52.078;21.014;2023-04-29T03:06:23;165147.03;;;5.33;80.58
45255;BME280;30989;52.078;21.014;2023-04-29T03:08:50;165144.34;;;5.32;80.33
45255;BME280;30989;52.078;21.014;2023-04-29T03:11:17;165152.38;;;5.35;80.61
45255;BME280;30989;52.078;21.014;2023-04-29T03:13:42;165133.69;;;5.28;80.67
45255;BME280;30989;52.078;21.014;2023-04-29T03:16:08;165148.34;;;5.33;80.33
45255;BME280;30989;52.078;21.014;2023-04-29T03:18:34;165141.69;;;5.31;80.10
45255;BME280;30989;52.078;21.014;2023-04-29T03:21:00;165145.69;;;5.32;80.51
45255;BME280;30989;52.078;21.014;2023-04-29T03:23:26;165149.69;;;5.34;80.49
45255;BME280;30989;52.078;21.014;2023-04-29T03:25:52;165164.38;;;5.39;80.54
45255;BME280;30989;52.078;21.014;2023-04-29T03:28:20;165161.72;;;5.38;80.46
45255;BME280;30989;52.078;21.014;2023-04-29T03:30:46;165163.03;;;5.39;80.96
45255;BME280;30989;52.078;21.014;2023-04-29T03:33:12;165157.69;;;5.37;80.25
45255;BME280;30989;52.078;21.014;2023-04-29T03:35:37;165164.38;;;5.39;80.64
45255;BME280;30989;52.078;21.014;2023-04-29T03:38:24;165143.03;;;5.31;79.76
45255;BME280;30989;52.078;21.014;2023-04-29T03:40:53;165169.72;;;5.41;79.98
45255;BME280;30989;52.078;21.014;2023-04-29T03:43:19;165175.06;;;5.43;80.15
45255;BME280;30989;52.078;21.014;2023-04-29T03:45:44;165175.06;;;5.43;80.67
45255;BME280;30989;52.078;21.014;2023-04-29T03:48:14;165172.38;;;5.42;80.76
45255;BME280;30989;52.078;21.014;2023-04-29T03:50:39;165183.06;;;5.46;80.32
45255;BME280;30989;52.078;21.014;2023-04-29T03:53:05;165177.72;;;5.44;80.30
45255;BME280;30989;52.078;21.014;2023-04-29T03:55:30;165185.72;;;5.47;80.35
45255;BME280;30989;52.078;21.014;2023-04-29T03:57:56;165196.41;;;5.52;80.44
45255;BME280;30989;52.078;21.014;2023-04-29T04:00:21;165180.41;;;5.45;80.58
45255;BME280;30989;52.078;21.014;2023-04-29T04:02:53;165207.09;;;5.56;80.35
45255;BME280;30989;52.078;21.014;2023-04-29T04:05:18;165204.41;;;5.55;80.28
45255;BME280;30989;52.078;21.014;2023-04-29T04:07:49;165208.44;;;5.56;80.14
45255;BME280;30989;52.078;21.014;2023-04-29T04:10:33;165223.09;;;5.62;80.02
45255;BME280;30989;52.078;21.014;2023-04-29T04:13:01;165231.13;;;5.65;79.93
45255;BME280;30989;52.078;21.014;2023-04-29T04:15:26;165237.78;;;5.67;80.08
45255;BME280;30989;52.078;21.014;2023-04-29T04:17:51;165235.13;;;5.66;80.18
45255;BME280;30989;52.078;21.014;2023-04-29T04:20:17;165239.13;;;5.68;80.43
45255;BME280;30989;52.078;21.014;2023-04-29T04:22:44;165239.13;;;5.68;80.15
45255;BME280;30989;52.078;21.014;2023-04-29T04:25:20;165255.16;;;5.74;80.65
45255;BME280;30989;52.078;21.014;2023-04-29T04:27:45;165265.84;;;5.78;79.97
45255;BME280;30989;52.078;21.014;2023-04-29T04:30:21;165273.84;;;5.81;79.54
45255;BME280;30989;52.078;21.014;2023-04-29T04:32:46;165289.88;;;5.87;79.65
45255;BME280;30989;52.078;21.014;2023-04-29T04:35:12;165304.59;;;5.93;79.98
45255;BME280;30989;52.078;21.014;2023-04-29T04:37:37;165313.94;;;5.96;79.90
45255;BME280;30989;52.078;21.014;2023-04-29T04:40:04;165331.31;;;6.03;79.33
45255;BME280;30989;52.078;21.014;2023-04-29T04:42:35;165346.00;;;6.08;79.89
45255;BME280;30989;52.078;21.014;2023-04-29T04:45:01;165360.69;;;6.14;78.87
45255;BME280;30989;52.078;21.014;2023-04-29T04:47:39;165388.72;;;6.25;79.28
45255;BME280;30989;52.078;21.014;2023-04-29T04:50:17;165422.13;;;6.37;79.12
45255;BME280;30989;52.078;21.014;2023-04-29T04:52:45;165452.84;;;6.49;78.61
45255;BME280;30989;52.078;21.014;2023-04-29T04:55:36;165468.88;;;6.55;77.80
45255;BME280;30989;52.078;21.014;2023-04-29T04:58:02;165500.94;;;6.67;77.68
45255;BME280;30989;52.078;21.014;2023-04-29T05:00:27;165533.00;;;6.79;77.47
45255;BME280;30989;52.078;21.014;2023-04-29T05:02:53;165545.03;;;6.84;76.95
45255;BME280;30989;52.078;21.014;2023-04-29T05:05:18;165581.09;;;6.98;76.97
45255;BME280;30989;52.078;21.014;2023-04-29T05:07:44;165610.50;;;7.09;77.01
45255;BME280;30989;52.078;21.014;2023-04-29T05:10:10;165645.25;;;7.22;76.53
45255;BME280;30989;52.078;21.014;2023-04-29T05:12:46;165669.28;;;7.31;75.58
45255;BME280;30989;52.078;21.014;2023-04-29T05:15:12;165686.69;;;7.38;74.74
45255;BME280;30989;52.078;21.014;2023-04-29T05:17:41;165724.09;;;7.52;74.76
45255;BME280;30989;52.078;21.014;2023-04-29T05:20:07;165749.50;;;7.62;74.10
45255;BME280;30989;52.078;21.014;2023-04-29T05:22:33;165778.91;;;7.73;74.60
45255;BME280;30989;52.078;21.014;2023-04-29T05:24:58;165811.00;;;7.85;73.44
45255;BME280;30989;52.078;21.014;2023-04-29T05:27:28;165836.41;;;7.95;73.75
45255;BME280;30989;52.078;21.014;2023-04-29T05:29:54;165861.81;;;8.04;73.76
45255;BME280;30989;52.078;21.014;2023-04-29T05:32:21;165896.56;;;8.18;72.92
45255;BME280;30989;52.078;21.014;2023-04-29T05:34:46;165913.94;;;8.24;72.43
45255;BME280;30989;52.078;21.014;2023-04-29T05:37:11;165935.34;;;8.32;71.64
45255;BME280;30989;52.078;21.014;2023-04-29T05:39:54;165955.47;;;8.40;70.73
45255;BME280;30989;52.078;21.014;2023-04-29T05:42:19;165970.16;;;8.46;71.06
45255;BME280;30989;52.078;21.014;2023-04-29T05:44:49;165983.53;;;8.51;70.36
45255;BME280;30989;52.078;21.014;2023-04-29T05:47:14;165988.91;;;8.53;70.17
45255;BME280;30989;52.078;21.014;2023-04-29T05:49:40;166010.31;;;8.61;70.24
45255;BME280;30989;52.078;21.014;2023-04-29T05:52:06;166038.41;;;8.71;69.10
45255;BME280;30989;52.078;21.014;2023-04-29T05:54:36;166073.19;;;8.85;69.47
45255;BME280;30989;52.078;21.014;2023-04-29T05:57:02;166101.28;;;8.95;69.18
45255;BME280;30989;52.078;21.014;2023-04-29T05:59:31;166134.72;;;9.08;68.55
45255;BME280;30989;52.078;21.014;2023-04-29T06:01:59;166156.13;;;9.16;68.35
45255;BME280;30989;52.078;21.014;2023-04-29T06:04:25;166182.88;;;9.26;67.96
45255;BME280;30989;52.078;21.014;2023-04-29T06:07:09;166216.34;;;9.39;67.01
45255;BME280;30989;52.078;21.014;2023-04-29T06:09:59;166241.78;;;9.49;67.41
45255;BME280;30989;52.078;21.014;2023-04-29T06:12:26;166261.84;;;9.56;66.97
45255;BME280;30989;52.078;21.014;2023-04-29T06:14:51;166308.69;;;9.74;67.55
45255;BME280;30989;52.078;21.014;2023-04-29T06:17:17;166334.13;;;9.84;66.87
45255;BME280;30989;52.078;21.014;2023-04-29T06:19:42;166360.91;;;9.94;66.18
45255;BME280;30989;52.078;21.014;2023-04-29T06:22:08;166376.97;;;10.00;64.48
45255;BME280;30989;52.078;21.014;2023-04-29T06:24:34;166399.75;;;10.09;64.86
45255;BME280;30989;52.078;21.014;2023-04-29T06:27:00;166407.78;;;10.12;65.01
45255;BME280;30989;52.078;21.014;2023-04-29T06:29:28;166434.59;;;10.22;65.06
45255;BME280;30989;52.078;21.014;2023-04-29T06:31:53;166472.09;;;10.36;64.08
45255;BME280;30989;52.078;21.014;2023-04-29T06:34:20;166504.28;;;10.48;63.76
45255;BME280;30989;52.078;21.014;2023-04-29T06:37:06;166525.72;;;10.56;63.57
45255;BME280;30989;52.078;21.014;2023-04-29T06:40:05;166561.88;;;10.70;63.45
45255;BME280;30989;52.078;21.014;2023-04-29T06:42:40;166598.03;;;10.84;62.80
45255;BME280;30989;52.078;21.014;2023-04-29T06:45:32;166643.59;;;11.01;61.85
45255;BME280;30989;52.078;21.014;2023-04-29T06:48:06;166666.38;;;11.10;62.49
45255;BME280;30989;52.078;21.014;2023-04-29T06:50:48;166699.88;;;11.22;61.01
45255;BME280;30989;52.078;21.014;2023-04-29T06:53:14;166714.59;;;11.28;61.14
45255;BME280;30989;52.078;21.014;2023-04-29T06:55:39;166753.47;;;11.43;61.10
45255;BME280;30989;52.078;21.014;2023-04-29T06:58:05;166789.66;;;11.56;60.99
45255;BME280;30989;52.078;21.014;2023-04-29T07:00:32;166839.25;;;11.75;61.02
45255;BME280;30989;52.078;21.014;2023-04-29T07:02:58;166860.72;;;11.83;60.49
45255;BME280;30989;52.078;21.014;2023-04-29T07:05:23;166887.53;;;11.93;60.01
45255;BME280;30989;52.078;21.014;2023-04-29T07:07:49;166910.34;;;12.02;59.80
45255;BME280;30989;52.078;21.014;2023-04-29T07:10:17;166914.34;;;12.04;58.44
45255;BME280;30989;52.078;21.014;2023-04-29T07:12:42;166930.44;;;12.10;58.81
45255;BME280;30989;52.078;21.014;2023-04-29T07:15:08;166950.56;;;12.17;57.89
45255;BME280;30989;52.078;21.014;2023-04-29T07:17:33;166951.91;;;12.18;58.06
45255;BME280;30989;52.078;21.014;2023-04-29T07:19:59;166965.31;;;12.23;57.15
45255;BME280;30989;52.078;21.014;2023-04-29T07:22:25;166980.03;;;12.29;58.19
45255;BME280;30989;52.078;21.014;2023-04-29T07:24:53;167000.16;;;12.36;58.58
45255;BME280;30989;52.078;21.014;2023-04-29T07:27:20;167018.94;;;12.43;57.87
45255;BME280;30989;52.078;21.014;2023-04-29T07:29:45;167024.28;;;12.45;58.05
45255;BME280;30989;52.078;21.014;2023-04-29T07:32:11;167033.69;;;12.49;57.28
45255;BME280;30989;52.078;21.014;2023-04-29T07:34:37;167035.03;;;12.49;57.33
45255;BME280;30989;52.078;21.014;2023-04-29T07:37:02;167067.19;;;12.62;57.94
45255;BME280;30989;52.078;21.014;2023-04-29T07:39:28;167107.44;;;12.77;57.14
45255;BME280;30989;52.078;21.014;2023-04-29T07:41:55;167135.59;;;12.87;55.93
45255;BME280;30989;52.078;21.014;2023-04-29T07:44:21;167181.22;;;13.05;56.33
45255;BME280;30989;52.078;21.014;2023-04-29T07:46:47;167216.13;;;13.18;55.75
45255;BME280;30989;52.078;21.014;2023-04-29T07:49:12;167229.56;;;13.23;55.86
45255;BME280;30989;52.078;21.014;2023-04-29T07:51:41;167251.00;;;13.31;54.36
45255;BME280;30989;52.078;21.014;2023-04-29T07:54:09;167268.47;;;13.38;54.72
45255;BME280;30989;52.078;21.014;2023-04-29T07:56:35;167281.88;;;13.43;54.76
45255;BME280;30989;52.078;21.014;2023-04-29T07:59:00;167289.94;;;13.46;54.59
45255;BME280;30989;52.078;21.014;2023-04-29T08:01:26;167335.53;;;13.63;55.31
45255;BME280;30989;52.078;21.014;2023-04-29T08:03:53;167399.97;;;13.87;54.91
45255;BME280;30989;52.078;21.014;2023-04-29T08:06:20;167449.63;;;14.06;54.51
45255;BME280;30989;52.078;21.014;2023-04-29T08:08:47;167480.50;;;14.18;54.15
45255;BME280;30989;52.078;21.014;2023-04-29T08:11:17;167512.72;;;14.30;52.42
45255;BME280;30989;52.078;21.014;2023-04-29T08:13:42;167531.50;;;14.37;53.59
45255;BME280;30989;52.078;21.014;2023-04-29T08:16:08;167561.09;;;14.48;53.30
45255;BME280;30989;52.078;21.014;2023-04-29T08:18:33;167579.88;;;14.56;53.16
45255;BME280;30989;52.078;21.014;2023-04-29T08:21:01;167597.34;;;14.62;52.24
45255;BME280;30989;52.078;21.014;2023-04-29T08:23:26;167601.38;;;14.64;52.07
45255;BME280;30989;52.078;21.014;2023-04-29T08:25:52;167601.38;;;14.64;52.73
45255;BME280;30989;52.078;21.014;2023-04-29T08:28:22;167641.66;;;14.79;52.89
45255;BME280;30989;52.078;21.014;2023-04-29T08:30:48;167690.00;;;14.97;52.04
45255;BME280;30989;52.078;21.014;2023-04-29T08:33:14;167699.38;;;15.01;51.53
45255;BME280;30989;52.078;21.014;2023-04-29T08:35:40;167719.53;;;15.08;51.91
45255;BME280;30989;52.078;21.014;2023-04-29T08:38:07;167735.66;;;15.14;51.66
45255;BME280;30989;52.078;21.014;2023-04-29T08:40:44;167749.09;;;15.20;51.37
45255;BME280;30989;52.078;21.014;2023-04-29T08:43:12;167762.50;;;15.25;50.67
45255;BME280;30989;52.078;21.014;2023-04-29T08:45:40;167767.88;;;15.27;50.95
45255;BME280;30989;52.078;21.014;2023-04-29T08:48:08;167775.94;;;15.30;49.99
45255;BME280;30989;52.078;21.014;2023-04-29T08:50:37;167782.66;;;15.32;50.29
45255;BME280;30989;52.078;21.014;2023-04-29T08:53:06;167802.81;;;15.40;50.46
45255;BME280;30989;52.078;21.014;2023-04-29T08:55:40;167817.59;;;15.45;49.64
45255;BME280;30989;52.078;21.014;2023-04-29T08:58:06;167827.00;;;15.49;50.41
45255;BME280;30989;52.078;21.014;2023-04-29T09:00:33;167837.75;;;15.53;49.33
45255;BME280;30989;52.078;21.014;2023-04-29T09:03:00;167848.53;;;15.57;50.12
45255;BME280;30989;52.078;21.014;2023-04-29T09:05:29;167862.03;;;15.62;49.49
45255;BME280;30989;52.078;21.014;2023-04-29T09:07:59;167891.56;;;15.73;49.71
45255;BME280;30989;52.078;21.014;2023-04-29T09:10:27;167905.00;;;15.78;49.30
45255;BME280;30989;52.078;21.014;2023-04-29T09:12:55;167931.88;;;15.89;49.56
45255;BME280;30989;52.078;21.014;2023-04-29T09:15:21;167964.13;;;16.01;48.70
45255;BME280;30989;52.078;21.014;2023-04-29T09:17:47;168011.16;;;16.19;48.47
45255;BME280;30989;52.078;21.014;2023-04-29T09:22:52;168133.53;;;16.65;47.23
45255;BME280;30989;52.078;21.014;2023-04-29T09:25:18;168172.50;;;16.80;47.09
45255;BME280;30989;52.078;21.014;2023-04-29T09:27:45;168228.97;;;17.01;47.60
45255;BME280;30989;52.078;21.014;2023-04-29T09:30:11;168290.81;;;17.24;47.45
45255;BME280;30989;52.078;21.014;2023-04-29T09:32:38;168306.97;;;17.30;46.00
45255;BME280;30989;52.078;21.014;2023-04-29T09:35:26;168331.16;;;17.39;46.19
45255;BME280;30989;52.078;21.014;2023-04-29T09:37:53;168332.50;;;17.40;44.19
45255;BME280;30989;52.078;21.014;2023-04-29T09:40:33;168335.19;;;17.41;44.82
45255;BME280;30989;52.078;21.014;2023-04-29T09:42:59;168359.41;;;17.50;44.18
45255;BME280;30989;52.078;21.014;2023-04-29T09:48:05;168401.16;;;17.66;45.50
45255;BME280;30989;52.078;21.014;2023-04-29T09:50:31;168456.31;;;17.87;44.40
45255;BME280;30989;52.078;21.014;2023-04-29T09:52:57;168511.47;;;18.08;45.24
45255;BME280;30989;52.078;21.014;2023-04-29T09:55:23;168549.13;;;18.22;44.21
45255;BME280;30989;52.078;21.014;2023-04-29T09:57:48;168602.94;;;18.42;44.67
45255;BME280;30989;52.078;21.014;2023-04-29T10:00:14;168662.22;;;18.64;43.17
45255;BME280;30989;52.078;21.014;2023-04-29T10:02:47;168706.63;;;18.81;43.03
45255;BME280;30989;52.078;21.014;2023-04-29T10:05:16;168736.22;;;18.92;43.52
45255;BME280;30989;52.078;21.014;2023-04-29T10:07:42;168768.53;;;19.05;43.63
45255;BME280;30989;52.078;21.014;2023-04-29T10:10:08;168818.34;;;19.23;43.70
45255;BME280;30989;52.078;21.014;2023-04-29T10:12:35;168847.94;;;19.35;42.92
45255;BME280;30989;52.078;21.014;2023-04-29T10:15:22;168881.63;;;19.47;42.62
45255;BME280;30989;52.078;21.014;2023-04-29T10:20:23;168865.44;;;19.41;42.44
45255;BME280;30989;52.078;21.014;2023-04-29T10:22:53;168889.69;;;19.50;42.43
45255;BME280;30989;52.078;21.014;2023-04-29T10:25:20;168895.13;;;19.52;41.78
45255;BME280;30989;52.078;21.014;2023-04-29T10:27:47;168891.03;;;19.51;41.54
45255;BME280;30989;52.078;21.014;2023-04-29T10:30:15;168850.66;;;19.36;41.71
45255;BME280;30989;52.078;21.014;2023-04-29T10:32:43;168842.56;;;19.32;41.69
45255;BME280;30989;52.078;21.014;2023-04-29T10:35:11;168827.75;;;19.27;41.99
45255;BME280;30989;52.078;21.014;2023-04-29T10:37:39;168852.00;;;19.36;42.23
45255;BME280;30989;52.078;21.014;2023-04-29T10:42:50;168897.81;;;19.53;40.81
45255;BME280;30989;52.078;21.014;2023-04-29T10:45:20;168924.75;;;19.63;41.60
45255;BME280;30989;52.078;21.014;2023-04-29T10:50:27;169071.53;;;20.19;41.45
45255;BME280;30989;52.078;21.014;2023-04-29T10:52:56;169117.31;;;20.36;40.69
45255;BME280;30989;52.078;21.014;2023-04-29T10:55:23;169157.78;;;20.51;40.82
45255;BME280;30989;52.078;21.014;2023-04-29T10:57:51;169151.06;;;20.49;40.81
45255;BME280;30989;52.078;21.014;2023-04-29T11:00:31;169080.97;;;20.22;40.15
45255;BME280;30989;52.078;21.014;2023-04-29T11:02:58;169066.16;;;20.17;39.89
45255;BME280;30989;52.078;21.014;2023-04-29T11:05:35;169113.28;;;20.35;40.05
45255;BME280;30989;52.078;21.014;2023-04-29T11:08:12;169178.00;;;20.59;38.86
45255;BME280;30989;52.078;21.014;2023-04-29T11:10:41;169186.06;;;20.62;40.06
45255;BME280;30989;52.078;21.014;2023-04-29T11:13:26;169149.69;;;20.48;38.63
45255;BME280;30989;52.078;21.014;2023-04-29T11:15:53;169129.50;;;20.41;39.61
45255;BME280;30989;52.078;21.014;2023-04-29T11:18:18;169176.66;;;20.58;39.60
45255;BME280;30989;52.078;21.014;2023-04-29T11:23:38;169481.28;;;21.73;38.91
45255;BME280;30989;52.078;21.014;2023-04-29T11:26:05;169652.56;;;22.38;36.68
45255;BME280;30989;52.078;21.014;2023-04-29T11:28:32;169829.28;;;23.04;37.38
45255;BME280;30989;52.078;21.014;2023-04-29T11:30:58;170014.16;;;23.74;36.00
45255;BME280;30989;52.078;21.014;2023-04-29T11:33:24;170170.75;;;24.33;35.46
45255;BME280;30989;52.078;21.014;2023-04-29T11:35:52;170328.69;;;24.92;35.89
45255;BME280;30989;52.078;21.014;2023-04-29T11:38:32;170531.31;;;25.68;32.22
45255;BME280;30989;52.078;21.014;2023-04-29T11:40:59;170644.84;;;26.11;34.17
45255;BME280;30989;52.078;21.014;2023-04-29T11:43:25;170743.50;;;26.48;33.72
45255;BME280;30989;52.078;21.014;2023-04-29T11:45:52;170816.47;;;26.76;33.34
45255;BME280;30989;52.078;21.014;2023-04-29T11:48:24;170880.03;;;27.00;32.65
45255;BME280;30989;52.078;21.014;2023-04-29T11:50:52;170838.09;;;26.84;32.05
45255;BME280;30989;52.078;21.014;2023-04-29T11:53:23;170807.00;;;26.72;32.13
45255;BME280;30989;52.078;21.014;2023-04-29T11:55:51;170805.66;;;26.72;30.76
45255;BME280;30989;52.078;21.014;2023-04-29T11:58:19;170751.59;;;26.51;30.90
45255;BME280;30989;52.078;21.014;2023-04-29T12:00:48;170562.38;;;25.80;31.34
45255;BME280;30989;52.078;21.014;2023-04-29T12:03:19;170424.59;;;25.28;32.64
45255;BME280;30989;52.078;21.014;2023-04-29T12:05:55;170424.59;;;25.28;32.26
45255;BME280;30989;52.078;21.014;2023-04-29T12:08:28;170390.84;;;25.16;31.54
45255;BME280;30989;52.078;21.014;2023-04-29T12:10:58;170222.03;;;24.52;32.39
45255;BME280;30989;52.078;21.014;2023-04-29T12:13:28;170227.44;;;24.54;33.67
45255;BME280;30989;52.078;21.014;2023-04-29T12:15:55;170359.78;;;25.04;32.84
45255;BME280;30989;52.078;21.014;2023-04-29T12:18:21;170588.03;;;25.90;33.20
45255;BME280;30989;52.078;21.014;2023-04-29T12:20:48;170871.88;;;26.96;31.55
45255;BME280;30989;52.078;21.014;2023-04-29T12:23:20;171145.00;;;27.99;31.55
45255;BME280;30989;52.078;21.014;2023-04-29T12:25:54;171422.31;;;29.03;29.84
45255;BME280;30989;52.078;21.014;2023-04-29T12:28:20;171515.66;;;29.38;28.12
45255;BME280;30989;52.078;21.014;2023-04-29T12:30:47;171504.84;;;29.34;27.80
45255;BME280;30989;52.078;21.014;2023-04-29T12:33:24;171473.72;;;29.23;27.98
45255;BME280;30989;52.078;21.014;2023-04-29T12:35:52;171312.72;;;28.62;27.54
45255;BME280;30989;52.078;21.014;2023-04-29T12:38:21;171241.06;;;28.35;28.53
45255;BME280;30989;52.078;21.014;2023-04-29T12:40:47;171063.88;;;27.69;28.72
45255;BME280;30989;52.078;21.014;2023-04-29T12:43:13;170854.31;;;26.90;29.03
45255;BME280;30989;52.078;21.014;2023-04-29T12:45:39;170629.97;;;26.06;29.40
45255;BME280;30989;52.078;21.014;2023-04-29T12:48:05;170396.22;;;25.18;30.61
45255;BME280;30989;52.078;21.014;2023-04-29T12:50:32;170224.72;;;24.53;30.74
45255;BME280;30989;52.078;21.014;2023-04-29T12:52:58;170057.31;;;23.90;30.60
45255;BME280;30989;52.078;21.014;2023-04-29T12:55:23;169930.44;;;23.42;30.95
45255;BME280;30989;52.078;21.014;2023-04-29T12:57:49;169949.34;;;23.50;31.88
45255;BME280;30989;52.078;21.014;2023-04-29T13:00:15;170095.13;;;24.04;32.21
45255;BME280;30989;52.078;21.014;2023-04-29T13:02:40;170186.94;;;24.39;32.55
45255;BME280;30989;52.078;21.014;2023-04-29T13:05:06;170359.78;;;25.04;32.11
45255;BME280;30989;52.078;21.014;2023-04-29T13:07:32;170470.50;;;25.46;31.16
45255;BME280;30989;52.078;21.014;2023-04-29T13:09:57;170408.38;;;25.22;30.07
45255;BME280;30989;52.078;21.014;2023-04-29T13:12:23;170213.94;;;24.49;30.39
45255;BME280;30989;52.078;21.014;2023-04-29T13:14:48;170026.28;;;23.78;31.72
45255;BME280;30989;52.078;21.014;2023-04-29T13:17:14;169858.94;;;23.15;31.61